createdAt,value
2019-01-10T00:00:15.879Z,6.53
2019-01-10T00:00:51.387Z,7.35
2019-01-10T00:01:23.848Z,7.08
2019-01-10T00:01:56.295Z,6.97
2019-01-10T00:02:29.145Z,6.33
2019-01-10T00:03:01.610Z,6.40
2019-01-10T00:03:34.057Z,6.95
2019-01-10T00:04:06.510Z,6.87
2019-01-10T00:04:39.007Z,7.10
2019-01-10T00:05:11.554Z,7.30
2019-01-10T00:05:44.022Z,7.50
2019-01-10T00:06:16.770Z,6.47
2019-01-10T00:06:49.217Z,5.92
2019-01-10T00:07:21.690Z,6.90
2019-01-10T00:07:54.145Z,6.65
2019-01-10T00:08:26.594Z,6.87
2019-01-10T00:08:59.044Z,6.65
2019-01-10T00:09:31.519Z,5.75
2019-01-10T00:10:05.635Z,6.00
2019-01-10T00:10:38.098Z,6.12
2019-01-10T00:11:10.559Z,6.22
2019-01-10T00:11:43.031Z,5.53
2019-01-10T00:12:15.490Z,5.60
2019-01-10T00:12:47.951Z,5.78
2019-01-10T00:13:20.395Z,5.33
2019-01-10T00:13:52.842Z,5.75
2019-01-10T00:14:25.284Z,5.08
2019-01-10T00:14:57.762Z,5.72
2019-01-10T00:15:30.249Z,5.83
2019-01-10T00:16:03.302Z,5.65
2019-01-10T00:16:35.763Z,5.15
2019-01-10T00:17:08.217Z,5.30
2019-01-10T00:17:40.790Z,5.42
2019-01-10T00:18:13.525Z,4.70
2019-01-10T00:18:45.969Z,5.45
2019-01-10T00:19:18.436Z,6.28
2019-01-10T00:19:50.877Z,5.80
2019-01-10T00:20:23.743Z,5.60
2019-01-10T00:20:56.242Z,5.22
2019-01-10T00:21:29.133Z,5.33
2019-01-10T00:22:01.873Z,5.65
2019-01-10T00:22:34.332Z,5.72
2019-01-10T00:23:06.905Z,5.50
2019-01-10T00:23:39.366Z,5.35
2019-01-10T00:24:11.912Z,5.50
2019-01-10T00:24:44.385Z,4.78
2019-01-10T00:25:16.865Z,4.30
2019-01-10T00:25:49.726Z,4.58
2019-01-10T00:26:22.214Z,3.83
2019-01-10T00:26:54.946Z,3.37
2019-01-10T00:27:27.402Z,3.37
2019-01-10T00:27:59.853Z,3.55
2019-01-10T00:28:32.312Z,2.90
2019-01-10T00:29:04.761Z,3.08
2019-01-10T00:29:37.232Z,2.52
2019-01-10T00:30:12.950Z,2.70
2019-01-10T00:30:45.757Z,2.80
2019-01-10T00:31:18.254Z,2.90
2019-01-10T00:31:50.723Z,3.17
2019-01-10T00:32:23.559Z,2.70
2019-01-10T00:32:55.997Z,2.47
2019-01-10T00:33:28.446Z,2.47
2019-01-10T00:34:00.907Z,2.60
2019-01-10T00:34:33.366Z,2.67
2019-01-10T00:35:06.067Z,2.65
2019-01-10T00:35:38.509Z,3.00
2019-01-10T00:36:10.962Z,2.70
2019-01-10T00:36:43.406Z,2.65
2019-01-10T00:37:16.206Z,2.98
2019-01-10T00:37:48.672Z,2.62
2019-01-10T00:38:21.740Z,2.67
2019-01-10T00:38:54.275Z,3.05
2019-01-10T00:39:27.181Z,3.08
2019-01-10T00:39:59.638Z,2.45
2019-01-10T00:40:32.114Z,3.08
2019-01-10T00:41:04.676Z,2.90
2019-01-10T00:41:37.112Z,2.80
2019-01-10T00:42:09.928Z,2.58
2019-01-10T00:42:49.273Z,2.60
2019-01-10T00:43:17.384Z,2.47
2019-01-10T00:43:49.833Z,2.30
2019-01-10T00:44:22.286Z,2.77
2019-01-10T00:44:54.736Z,2.92
2019-01-10T00:45:27.517Z,2.72
2019-01-10T00:45:59.976Z,2.90
2019-01-10T00:46:32.430Z,2.80
2019-01-10T00:47:04.866Z,2.90
2019-01-10T00:47:37.684Z,2.87
2019-01-10T00:48:10.507Z,2.70
2019-01-10T00:48:42.962Z,2.55
2019-01-10T00:49:15.835Z,3.05
2019-01-10T00:49:48.298Z,3.05
2019-01-10T00:50:22.970Z,2.70
2019-01-10T00:50:55.423Z,2.80
2019-01-10T00:51:27.880Z,3.05
2019-01-10T00:52:00.721Z,2.35
2019-01-10T00:52:33.178Z,3.10
2019-01-10T00:53:05.626Z,2.58
2019-01-10T00:53:38.114Z,2.87
2019-01-10T00:54:10.566Z,2.20
2019-01-10T00:54:43.006Z,2.47
2019-01-10T00:55:15.448Z,2.58
2019-01-10T00:55:47.913Z,2.45
2019-01-10T00:56:20.370Z,2.98
2019-01-10T00:56:52.819Z,2.50
2019-01-10T00:57:25.275Z,2.20
2019-01-10T00:57:57.726Z,2.10
2019-01-10T00:58:30.172Z,2.75
2019-01-10T00:59:02.778Z,2.70
2019-01-10T00:59:35.238Z,2.25
2019-01-10T01:00:11.470Z,2.60
2019-01-10T01:00:43.932Z,2.37
2019-01-10T01:01:16.383Z,2.60
2019-01-10T01:01:48.817Z,2.65
2019-01-10T01:02:21.263Z,2.55
2019-01-10T01:02:53.811Z,2.72
2019-01-10T01:03:26.275Z,2.00
2019-01-10T01:03:58.726Z,2.22
2019-01-10T01:04:31.227Z,2.42
2019-01-10T01:05:04.763Z,2.55
2019-01-10T01:05:37.571Z,3.08
2019-01-10T01:06:10.351Z,2.77
2019-01-10T01:06:42.811Z,2.47
2019-01-10T01:07:15.271Z,1.77
2019-01-10T01:07:47.776Z,2.60
2019-01-10T01:08:20.410Z,2.33
2019-01-10T01:08:52.878Z,2.65
2019-01-10T01:09:25.777Z,2.00
2019-01-10T01:09:58.265Z,2.87
2019-01-10T01:10:30.728Z,2.58
2019-01-10T01:11:03.379Z,2.50
2019-01-10T01:11:35.894Z,2.27
2019-01-10T01:12:08.352Z,2.47
2019-01-10T01:12:41.114Z,2.45
2019-01-10T01:13:13.969Z,2.52
2019-01-10T01:13:46.424Z,2.75
2019-01-10T01:14:18.865Z,2.27
2019-01-10T01:14:51.322Z,2.83
2019-01-10T01:15:24.204Z,2.35
2019-01-10T01:15:56.678Z,2.08
2019-01-10T01:16:29.471Z,2.15
2019-01-10T01:17:02.748Z,2.50
2019-01-10T01:17:35.210Z,2.58
2019-01-10T01:18:07.645Z,2.85
2019-01-10T01:18:40.538Z,2.72
2019-01-10T01:19:12.982Z,2.50
2019-01-10T01:19:45.430Z,2.50
2019-01-10T01:20:19.663Z,2.45
2019-01-10T01:20:52.160Z,2.47
2019-01-10T01:21:24.618Z,2.80
2019-01-10T01:21:57.073Z,2.30
2019-01-10T01:22:29.514Z,2.70
2019-01-10T01:23:01.969Z,2.90
2019-01-10T01:23:34.436Z,2.33
2019-01-10T01:24:06.898Z,2.20
2019-01-10T01:24:39.354Z,2.30
2019-01-10T01:25:12.015Z,2.65
2019-01-10T01:25:44.481Z,2.50
2019-01-10T01:26:17.003Z,1.90
2019-01-10T01:26:49.473Z,2.20
2019-01-10T01:27:21.911Z,1.82
2019-01-10T01:27:54.354Z,2.30
2019-01-10T01:28:26.803Z,2.37
2019-01-10T01:28:59.256Z,2.12
2019-01-10T01:29:31.702Z,2.45
2019-01-10T01:30:07.050Z,3.10
2019-01-10T01:30:39.494Z,2.58
2019-01-10T01:31:12.257Z,2.58
2019-01-10T01:31:44.749Z,3.10
2019-01-10T01:32:17.222Z,2.33
2019-01-10T01:32:49.686Z,2.98
2019-01-10T01:33:22.127Z,3.00
2019-01-10T01:33:54.945Z,2.67
2019-01-10T01:34:28.049Z,2.70
2019-01-10T01:35:00.853Z,2.47
2019-01-10T01:35:33.321Z,2.25
2019-01-10T01:36:06.491Z,2.80
2019-01-10T01:36:39.327Z,2.35
2019-01-10T01:37:11.858Z,2.15
2019-01-10T01:37:44.602Z,3.17
2019-01-10T01:38:17.150Z,2.52
2019-01-10T01:38:49.600Z,2.50
2019-01-10T01:39:22.062Z,2.20
2019-01-10T01:39:54.546Z,2.60
2019-01-10T01:40:26.985Z,2.35
2019-01-10T01:40:59.572Z,2.42
2019-01-10T01:41:32.005Z,3.08
2019-01-10T01:42:04.473Z,3.40
2019-01-10T01:42:36.950Z,2.50
2019-01-10T01:43:09.393Z,2.58
2019-01-10T01:43:42.074Z,2.60
2019-01-10T01:44:14.522Z,2.50
2019-01-10T01:44:47.262Z,2.58
2019-01-10T01:45:19.868Z,3.12
2019-01-10T01:45:52.318Z,2.47
2019-01-10T01:46:24.779Z,2.90
2019-01-10T01:46:57.238Z,2.45
2019-01-10T01:47:30.067Z,2.87
2019-01-10T01:48:02.565Z,2.33
2019-01-10T01:48:35.018Z,3.00
2019-01-10T01:49:07.889Z,2.90
2019-01-10T01:49:40.364Z,3.58
2019-01-10T01:50:15.656Z,2.58
2019-01-10T01:50:48.115Z,2.75
2019-01-10T01:51:21.000Z,2.80
2019-01-10T01:51:53.454Z,2.72
2019-01-10T01:52:25.922Z,2.98
2019-01-10T01:52:58.375Z,2.35
2019-01-10T01:53:30.872Z,2.72
2019-01-10T01:54:03.434Z,2.83
2019-01-10T01:54:35.901Z,2.60
2019-01-10T01:55:09.068Z,2.60
2019-01-10T01:55:41.818Z,2.45
2019-01-10T01:56:14.284Z,2.75
2019-01-10T01:56:46.737Z,2.70
2019-01-10T01:57:19.185Z,2.22
2019-01-10T01:57:51.655Z,2.52
2019-01-10T01:58:24.118Z,3.00
2019-01-10T01:58:56.612Z,2.58
2019-01-10T01:59:29.507Z,2.92
2019-01-10T02:00:01.966Z,2.67
2019-01-10T02:00:34.866Z,2.90
2019-01-10T02:01:07.419Z,2.62
2019-01-10T02:01:39.879Z,2.58
2019-01-10T02:02:12.443Z,2.17
2019-01-10T02:02:44.903Z,2.60
2019-01-10T02:03:17.367Z,2.10
2019-01-10T02:03:49.825Z,2.40
2019-01-10T02:04:22.297Z,2.08
2019-01-10T02:04:54.759Z,2.08
2019-01-10T02:05:27.211Z,2.60
2019-01-10T02:05:59.649Z,2.00
2019-01-10T02:06:32.234Z,2.10
2019-01-10T02:07:05.263Z,2.83
2019-01-10T02:07:37.752Z,1.95
2019-01-10T02:08:10.216Z,2.33
2019-01-10T02:08:42.673Z,1.95
2019-01-10T02:09:15.136Z,2.10
2019-01-10T02:09:47.609Z,2.37
2019-01-10T02:10:22.941Z,2.77
2019-01-10T02:10:55.410Z,2.50
2019-01-10T02:11:28.216Z,2.60
2019-01-10T02:12:00.933Z,2.10
2019-01-10T02:12:33.657Z,1.87
2019-01-10T02:13:06.476Z,3.30
2019-01-10T02:13:38.929Z,2.30
2019-01-10T02:14:11.405Z,2.33
2019-01-10T02:14:43.857Z,2.22
2019-01-10T02:15:16.350Z,2.02
2019-01-10T02:15:48.797Z,2.10
2019-01-10T02:16:21.967Z,2.17
2019-01-10T02:16:55.252Z,2.25
2019-01-10T02:17:27.706Z,2.40
2019-01-10T02:18:00.179Z,2.45
2019-01-10T02:18:32.643Z,2.17
2019-01-10T02:19:05.122Z,2.75
2019-01-10T02:19:37.953Z,2.45
2019-01-10T02:20:11.438Z,2.67
2019-01-10T02:20:43.911Z,3.00
2019-01-10T02:21:16.383Z,3.70
2019-01-10T02:21:49.127Z,3.80
2019-01-10T02:22:21.897Z,3.22
2019-01-10T02:22:54.367Z,4.50
2019-01-10T02:23:26.827Z,4.72
2019-01-10T02:23:59.893Z,5.50
2019-01-10T02:24:32.355Z,6.40
2019-01-10T02:25:05.742Z,6.62
2019-01-10T02:25:38.343Z,7.20
2019-01-10T02:26:11.322Z,6.65
2019-01-10T02:26:43.831Z,6.22
2019-01-10T02:27:16.291Z,8.15
2019-01-10T02:27:49.081Z,7.70
2019-01-10T02:28:21.942Z,7.90
2019-01-10T02:28:54.405Z,8.88
2019-01-10T02:29:26.862Z,9.13
2019-01-10T02:29:59.323Z,9.05
2019-01-10T02:30:41.660Z,10.72
2019-01-10T02:31:06.054Z,10.75
2019-01-10T02:31:38.539Z,10.23
2019-01-10T02:32:11.004Z,11.75
2019-01-10T02:32:43.459Z,10.38
2019-01-10T02:33:15.920Z,11.57
2019-01-10T02:33:48.681Z,11.28
2019-01-10T02:34:21.138Z,11.55
2019-01-10T02:34:53.581Z,11.75
2019-01-10T02:35:26.057Z,11.70
2019-01-10T02:35:58.500Z,11.65
2019-01-10T02:36:30.977Z,11.75
2019-01-10T02:37:03.875Z,12.78
2019-01-10T02:37:36.330Z,11.75
2019-01-10T02:38:08.782Z,12.78
2019-01-10T02:38:41.904Z,11.20
2019-01-10T02:39:14.354Z,11.60
2019-01-10T02:39:46.813Z,13.05
2019-01-10T02:40:19.270Z,11.08
2019-01-10T02:40:51.723Z,10.68
2019-01-10T02:41:24.302Z,11.55
2019-01-10T02:41:56.776Z,11.50
2019-01-10T02:42:29.251Z,10.45
2019-01-10T02:43:01.705Z,12.00
2019-01-10T02:43:34.167Z,11.25
2019-01-10T02:44:06.637Z,12.30
2019-01-10T02:44:39.093Z,12.15
2019-01-10T02:45:12.425Z,11.83
2019-01-10T02:45:44.891Z,11.60
2019-01-10T02:46:17.356Z,12.43
2019-01-10T02:46:50.079Z,12.53
2019-01-10T02:47:22.817Z,13.62
2019-01-10T02:47:55.310Z,12.63
2019-01-10T02:48:28.117Z,12.10
2019-01-10T02:49:00.604Z,12.85
2019-01-10T02:49:33.083Z,13.60
2019-01-10T02:50:07.340Z,12.43
2019-01-10T02:50:39.792Z,14.07
2019-01-10T02:51:12.240Z,12.93
2019-01-10T02:51:44.689Z,14.25
2019-01-10T02:52:17.482Z,13.60
2019-01-10T02:52:50.047Z,12.82
2019-01-10T02:53:22.520Z,13.60
2019-01-10T02:53:54.966Z,14.10
2019-01-10T02:54:27.827Z,15.28
2019-01-10T02:55:00.583Z,14.33
2019-01-10T02:55:33.122Z,13.28
2019-01-10T02:56:05.573Z,13.18
2019-01-10T02:56:38.043Z,12.37
2019-01-10T02:57:10.793Z,14.20
2019-01-10T02:57:43.514Z,13.28
2019-01-10T02:58:15.979Z,14.03
2019-01-10T02:58:48.749Z,12.98
2019-01-10T02:59:21.212Z,13.10
2019-01-10T02:59:53.666Z,14.40
2019-01-10T03:00:26.113Z,15.15
2019-01-10T03:00:58.557Z,14.03
2019-01-10T03:01:31.007Z,14.70
2019-01-10T03:02:03.571Z,14.05
2019-01-10T03:02:36.021Z,13.78
2019-01-10T03:03:08.486Z,14.60
2019-01-10T03:03:40.921Z,14.95
2019-01-10T03:04:13.521Z,13.90
2019-01-10T03:04:45.970Z,13.90
2019-01-10T03:05:19.058Z,13.30
2019-01-10T03:05:51.613Z,14.20
2019-01-10T03:06:24.078Z,12.80
2019-01-10T03:06:56.542Z,13.43
2019-01-10T03:07:28.991Z,12.20
2019-01-10T03:08:01.539Z,13.55
2019-01-10T03:08:34.015Z,13.00
2019-01-10T03:09:08.489Z,12.65
2019-01-10T03:09:41.242Z,13.18
2019-01-10T03:10:15.560Z,12.28
2019-01-10T03:10:48.022Z,11.90
2019-01-10T03:11:20.780Z,11.75
2019-01-10T03:11:53.244Z,12.07
2019-01-10T03:12:25.680Z,11.10
2019-01-10T03:12:58.526Z,11.97
2019-01-10T03:13:36.408Z,10.95
2019-01-10T03:14:05.272Z,10.32
2019-01-10T03:14:37.725Z,10.75
2019-01-10T03:15:10.503Z,11.48
2019-01-10T03:15:42.965Z,11.20
2019-01-10T03:16:15.444Z,11.50
2019-01-10T03:16:47.901Z,11.57
2019-01-10T03:17:20.349Z,10.48
2019-01-10T03:17:52.800Z,10.32
2019-01-10T03:18:25.633Z,11.10
2019-01-10T03:18:58.107Z,12.07
2019-01-10T03:19:30.582Z,10.00
2019-01-10T03:20:04.455Z,9.93
2019-01-10T03:20:36.937Z,10.95
2019-01-10T03:21:09.389Z,10.93
2019-01-10T03:21:41.855Z,10.98
2019-01-10T03:22:14.314Z,10.10
2019-01-10T03:22:47.058Z,9.70
2019-01-10T03:23:19.527Z,9.88
2019-01-10T03:23:51.981Z,9.85
2019-01-10T03:24:24.451Z,9.40
2019-01-10T03:24:57.241Z,8.85
2019-01-10T03:25:29.702Z,9.83
2019-01-10T03:26:02.176Z,8.40
2019-01-10T03:26:34.639Z,8.98
2019-01-10T03:27:07.135Z,8.70
2019-01-10T03:27:39.585Z,8.08
2019-01-10T03:28:12.063Z,8.00
2019-01-10T03:28:44.515Z,8.30
2019-01-10T03:29:16.962Z,9.20
2019-01-10T03:29:49.401Z,8.33
2019-01-10T03:30:21.870Z,8.38
2019-01-10T03:30:54.324Z,8.40
2019-01-10T03:31:26.811Z,7.10
2019-01-10T03:31:59.245Z,7.72
2019-01-10T03:32:32.104Z,6.03
2019-01-10T03:33:04.574Z,6.92
2019-01-10T03:33:37.025Z,7.25
2019-01-10T03:34:09.481Z,8.80
2019-01-10T03:34:41.927Z,7.22
2019-01-10T03:35:14.381Z,6.95
2019-01-10T03:35:46.836Z,5.58
2019-01-10T03:36:19.295Z,5.30
2019-01-10T03:36:51.783Z,5.25
2019-01-10T03:37:24.241Z,5.60
2019-01-10T03:37:56.997Z,5.60
2019-01-10T03:38:29.794Z,5.92
2019-01-10T03:39:03.775Z,4.75
2019-01-10T03:39:36.238Z,5.03
2019-01-10T03:40:14.413Z,4.90
2019-01-10T03:40:46.860Z,5.10
2019-01-10T03:41:19.313Z,4.70
2019-01-10T03:41:51.767Z,4.60
2019-01-10T03:42:24.250Z,4.58
2019-01-10T03:42:56.708Z,4.70
2019-01-10T03:43:29.166Z,4.87
2019-01-10T03:44:01.628Z,4.83
2019-01-10T03:44:34.798Z,5.22
2019-01-10T03:45:09.939Z,5.10
2019-01-10T03:45:42.403Z,4.78
2019-01-10T03:46:14.853Z,5.92
2019-01-10T03:46:47.310Z,5.58
2019-01-10T03:47:19.766Z,4.83
2019-01-10T03:47:52.647Z,4.95
2019-01-10T03:48:25.141Z,5.35
2019-01-10T03:48:57.596Z,4.80
2019-01-10T03:49:30.071Z,5.30
2019-01-10T03:50:02.911Z,6.20
2019-01-10T03:50:37.806Z,5.10
2019-01-10T03:51:09.971Z,5.17
2019-01-10T03:51:42.850Z,4.90
2019-01-10T03:52:15.297Z,4.58
2019-01-10T03:52:47.862Z,5.08
2019-01-10T03:53:20.496Z,5.75
2019-01-10T03:53:52.941Z,5.78
2019-01-10T03:54:25.401Z,5.40
2019-01-10T03:54:57.877Z,5.28
2019-01-10T03:55:30.320Z,5.50
2019-01-10T03:56:02.895Z,5.90
2019-01-10T03:56:35.351Z,5.53
2019-01-10T03:57:07.814Z,5.60
2019-01-10T03:57:40.282Z,6.10
2019-01-10T03:58:12.752Z,5.92
2019-01-10T03:58:45.242Z,6.30
2019-01-10T03:59:18.229Z,6.10
2019-01-10T03:59:52.790Z,5.17
2019-01-10T04:00:25.063Z,5.87
2019-01-10T04:00:57.506Z,5.40
2019-01-10T04:01:29.978Z,5.83
2019-01-10T04:02:02.433Z,5.95
2019-01-10T04:02:34.891Z,5.67
2019-01-10T04:03:07.360Z,5.40
2019-01-10T04:03:40.098Z,4.50
2019-01-10T04:04:12.565Z,5.75
2019-01-10T04:04:45.037Z,5.40
2019-01-10T04:05:17.700Z,5.12
2019-01-10T04:05:50.169Z,5.17
2019-01-10T04:06:22.626Z,4.70
2019-01-10T04:06:55.073Z,5.50
2019-01-10T04:07:27.950Z,5.33
2019-01-10T04:08:00.406Z,5.72
2019-01-10T04:08:33.231Z,5.55
2019-01-10T04:09:07.410Z,4.92
2019-01-10T04:09:40.180Z,5.05
2019-01-10T04:10:12.675Z,5.20
2019-01-10T04:10:45.127Z,5.15
2019-01-10T04:11:17.611Z,6.40
2019-01-10T04:11:50.054Z,4.97
2019-01-10T04:12:22.801Z,4.72
2019-01-10T04:12:55.982Z,6.37
2019-01-10T04:13:28.443Z,5.33
2019-01-10T04:14:01.211Z,5.40
2019-01-10T04:14:33.667Z,4.65
2019-01-10T04:15:07.202Z,5.00
2019-01-10T04:15:39.663Z,4.45
2019-01-10T04:16:12.124Z,4.92
2019-01-10T04:16:44.577Z,5.15
2019-01-10T04:17:17.040Z,5.70
2019-01-10T04:17:49.488Z,4.87
2019-01-10T04:18:21.946Z,5.40
2019-01-10T04:18:54.406Z,5.33
2019-01-10T04:19:26.859Z,4.60
2019-01-10T04:19:59.632Z,5.60
2019-01-10T04:20:32.245Z,5.30
2019-01-10T04:21:04.703Z,5.37
2019-01-10T04:21:37.149Z,5.10
2019-01-10T04:22:09.896Z,5.28
2019-01-10T04:22:42.845Z,5.72
2019-01-10T04:23:15.290Z,5.78
2019-01-10T04:23:47.742Z,4.42
2019-01-10T04:24:20.200Z,5.42
2019-01-10T04:24:52.689Z,5.42
2019-01-10T04:25:25.150Z,5.55
2019-01-10T04:25:57.640Z,4.97
2019-01-10T04:26:30.081Z,5.87
2019-01-10T04:27:02.598Z,5.53
2019-01-10T04:27:35.092Z,6.50
2019-01-10T04:28:07.547Z,5.67
2019-01-10T04:28:40.028Z,5.17
2019-01-10T04:29:12.757Z,5.33
2019-01-10T04:29:45.223Z,5.42
2019-01-10T04:30:19.449Z,6.12
2019-01-10T04:30:52.017Z,5.92
2019-01-10T04:31:24.503Z,6.30
2019-01-10T04:31:57.071Z,5.65
2019-01-10T04:32:29.526Z,6.22
2019-01-10T04:33:01.984Z,6.75
2019-01-10T04:33:34.433Z,6.25
2019-01-10T04:34:06.902Z,6.35
2019-01-10T04:34:39.361Z,6.47
2019-01-10T04:35:11.913Z,5.60
2019-01-10T04:35:44.633Z,5.65
2019-01-10T04:36:17.488Z,6.72
2019-01-10T04:36:49.981Z,6.17
2019-01-10T04:37:22.787Z,6.60
2019-01-10T04:37:55.606Z,5.80
2019-01-10T04:38:28.051Z,6.12
2019-01-10T04:39:00.493Z,6.05
2019-01-10T04:39:35.417Z,6.33
2019-01-10T04:40:10.814Z,5.83
2019-01-10T04:40:43.266Z,6.28
2019-01-10T04:41:15.723Z,6.62
2019-01-10T04:41:48.169Z,5.37
2019-01-10T04:42:21.840Z,5.45
2019-01-10T04:42:54.439Z,6.28
2019-01-10T04:43:26.998Z,5.78
2019-01-10T04:44:07.053Z,6.22
2019-01-10T04:44:33.722Z,6.15
2019-01-10T04:45:06.448Z,6.15
2019-01-10T04:45:38.919Z,5.60
2019-01-10T04:46:11.369Z,5.45
2019-01-10T04:46:43.831Z,6.22
2019-01-10T04:47:16.281Z,6.05
2019-01-10T04:47:49.188Z,5.40
2019-01-10T04:48:21.637Z,5.67
2019-01-10T04:48:54.351Z,6.30
2019-01-10T04:49:26.797Z,5.72
2019-01-10T04:50:00.272Z,5.45
2019-01-10T04:50:32.784Z,5.67
2019-01-10T04:51:05.612Z,4.83
2019-01-10T04:51:38.415Z,4.47
2019-01-10T04:52:10.880Z,5.12
2019-01-10T04:52:43.618Z,4.90
2019-01-10T04:53:16.108Z,4.65
2019-01-10T04:53:48.561Z,4.97
2019-01-10T04:54:21.039Z,5.00
2019-01-10T04:54:56.140Z,4.50
2019-01-10T04:55:27.855Z,4.95
2019-01-10T04:56:00.305Z,4.25
2019-01-10T04:56:32.888Z,5.08
2019-01-10T04:57:05.347Z,4.10
2019-01-10T04:57:37.823Z,4.67
2019-01-10T04:58:10.274Z,4.55
2019-01-10T04:58:43.061Z,3.60
2019-01-10T04:59:15.528Z,3.87
2019-01-10T04:59:47.979Z,3.70
2019-01-10T05:00:23.149Z,3.20
2019-01-10T05:00:55.673Z,3.67
2019-01-10T05:01:28.134Z,3.58
2019-01-10T05:02:00.605Z,3.92
2019-01-10T05:02:33.062Z,3.67
2019-01-10T05:03:06.547Z,3.72
2019-01-10T05:03:39.017Z,3.92
2019-01-10T05:04:11.513Z,3.30
2019-01-10T05:04:44.329Z,3.17
2019-01-10T05:05:16.800Z,2.60
2019-01-10T05:05:49.462Z,2.60
2019-01-10T05:06:21.939Z,2.70
2019-01-10T05:06:54.407Z,2.60
2019-01-10T05:07:26.879Z,2.90
2019-01-10T05:07:59.339Z,2.12
2019-01-10T05:08:31.807Z,2.50
2019-01-10T05:09:06.225Z,2.08
2019-01-10T05:09:38.726Z,2.35
2019-01-10T05:10:11.813Z,2.08
2019-01-10T05:10:44.254Z,2.98
2019-01-10T05:11:16.723Z,2.12
2019-01-10T05:11:49.178Z,2.42
2019-01-10T05:12:21.634Z,2.02
2019-01-10T05:12:54.095Z,2.33
2019-01-10T05:13:26.657Z,2.05
2019-01-10T05:13:59.125Z,2.42
2019-01-10T05:14:31.579Z,1.90
2019-01-10T05:15:05.230Z,1.95
2019-01-10T05:15:37.697Z,2.02
2019-01-10T05:16:10.641Z,1.85
2019-01-10T05:16:43.092Z,1.98
2019-01-10T05:17:15.544Z,1.90
2019-01-10T05:17:48.013Z,2.15
2019-01-10T05:18:20.761Z,2.17
2019-01-10T05:18:53.227Z,2.42
2019-01-10T05:19:26.098Z,1.72
2019-01-10T05:19:58.591Z,2.00
2019-01-10T05:20:31.082Z,1.95
2019-01-10T05:21:03.672Z,1.98
2019-01-10T05:21:36.237Z,1.98
2019-01-10T05:22:08.682Z,1.50
2019-01-10T05:22:41.145Z,1.57
2019-01-10T05:23:13.623Z,1.82
2019-01-10T05:23:46.089Z,1.75
2019-01-10T05:24:18.546Z,1.90
2019-01-10T05:24:51.373Z,1.60
2019-01-10T05:25:23.890Z,1.65
2019-01-10T05:25:56.385Z,1.72
2019-01-10T05:26:28.835Z,1.55
2019-01-10T05:27:01.278Z,2.08
2019-01-10T05:27:33.746Z,1.62
2019-01-10T05:28:06.262Z,1.65
2019-01-10T05:28:38.737Z,2.00
2019-01-10T05:29:11.209Z,1.70
2019-01-10T05:29:43.685Z,2.37
2019-01-10T05:30:23.734Z,1.65
2019-01-10T05:30:56.227Z,1.85
2019-01-10T05:31:29.164Z,1.75
2019-01-10T05:32:02.612Z,1.65
2019-01-10T05:32:35.220Z,1.30
2019-01-10T05:33:07.747Z,1.90
2019-01-10T05:33:40.225Z,2.00
2019-01-10T05:34:12.734Z,2.12
2019-01-10T05:34:45.290Z,1.70
2019-01-10T05:35:17.775Z,1.67
2019-01-10T05:35:50.251Z,1.75
2019-01-10T05:36:22.738Z,1.90
2019-01-10T05:36:55.237Z,1.60
2019-01-10T05:37:27.730Z,1.87
2019-01-10T05:38:00.228Z,2.20
2019-01-10T05:38:32.724Z,1.65
2019-01-10T05:39:08.094Z,1.70
2019-01-10T05:39:47.473Z,2.17
2019-01-10T05:40:14.886Z,1.62
2019-01-10T05:40:47.395Z,1.77
2019-01-10T05:41:20.193Z,1.55
2019-01-10T05:41:53.045Z,1.92
2019-01-10T05:42:25.539Z,1.50
2019-01-10T05:42:58.403Z,2.10
2019-01-10T05:43:30.891Z,1.62
2019-01-10T05:44:03.498Z,1.67
2019-01-10T05:44:35.976Z,1.45
2019-01-10T05:45:10.390Z,1.87
2019-01-10T05:45:42.870Z,1.52
2019-01-10T05:46:15.634Z,1.98
2019-01-10T05:46:49.011Z,1.50
2019-01-10T05:47:21.568Z,1.70
2019-01-10T05:47:54.444Z,1.50
2019-01-10T05:48:27.612Z,1.70
2019-01-10T05:49:00.450Z,2.10
2019-01-10T05:49:33.581Z,2.27
2019-01-10T05:50:08.103Z,2.15
2019-01-10T05:50:40.595Z,1.92
2019-01-10T05:51:13.401Z,2.10
2019-01-10T05:51:45.870Z,1.85
2019-01-10T05:52:18.352Z,2.20
2019-01-10T05:52:50.848Z,1.92
2019-01-10T05:53:23.725Z,2.12
2019-01-10T05:53:56.520Z,1.62
2019-01-10T05:54:29.306Z,1.70
2019-01-10T05:55:01.786Z,1.60
2019-01-10T05:55:34.266Z,1.80
2019-01-10T05:56:15.054Z,1.95
2019-01-10T05:56:41.059Z,2.08
2019-01-10T05:57:13.551Z,1.55
2019-01-10T05:57:46.025Z,1.70
2019-01-10T05:58:18.906Z,1.95
2019-01-10T05:58:51.746Z,2.20
2019-01-10T05:59:25.247Z,1.92
2019-01-10T05:59:57.803Z,1.90
2019-01-10T06:00:30.571Z,1.75
2019-01-10T06:01:03.062Z,2.10
2019-01-10T06:01:35.555Z,2.52
2019-01-10T06:02:08.468Z,1.65
2019-01-10T06:02:40.977Z,2.00
2019-01-10T06:03:13.895Z,1.52
2019-01-10T06:03:53.279Z,1.80
2019-01-10T06:04:20.973Z,1.62
2019-01-10T06:04:53.438Z,1.77
2019-01-10T06:05:26.217Z,1.90
2019-01-10T06:05:58.697Z,1.98
2019-01-10T06:06:31.470Z,1.67
2019-01-10T06:07:03.982Z,1.92
2019-01-10T06:07:36.455Z,1.62
2019-01-10T06:08:08.937Z,1.90
2019-01-10T06:08:41.396Z,1.55
2019-01-10T06:09:13.864Z,1.55
2019-01-10T06:09:46.396Z,1.60
2019-01-10T06:10:24.052Z,2.35
2019-01-10T06:10:56.484Z,2.12
2019-01-10T06:11:28.947Z,2.15
2019-01-10T06:12:01.781Z,1.57
2019-01-10T06:12:34.262Z,1.80
2019-01-10T06:13:06.759Z,2.15
2019-01-10T06:13:39.230Z,1.90
2019-01-10T06:14:11.821Z,1.90
2019-01-10T06:14:44.300Z,1.67
2019-01-10T06:15:16.914Z,1.85
2019-01-10T06:15:49.386Z,1.90
2019-01-10T06:16:22.288Z,1.50
2019-01-10T06:16:54.762Z,2.25
2019-01-10T06:17:27.241Z,1.72
2019-01-10T06:18:00.171Z,2.02
2019-01-10T06:18:33.030Z,2.22
2019-01-10T06:19:05.515Z,1.85
2019-01-10T06:19:38.362Z,1.90
2019-01-10T06:20:12.455Z,1.77
2019-01-10T06:20:44.969Z,1.72
2019-01-10T06:21:17.442Z,1.92
2019-01-10T06:21:50.250Z,2.00
2019-01-10T06:22:23.023Z,1.80
2019-01-10T06:22:55.796Z,2.05
2019-01-10T06:23:28.279Z,1.82
2019-01-10T06:24:00.757Z,2.65
2019-01-10T06:24:33.241Z,1.98
2019-01-10T06:25:05.847Z,1.70
2019-01-10T06:25:38.656Z,1.70
2019-01-10T06:26:11.131Z,1.60
2019-01-10T06:26:43.609Z,1.65
2019-01-10T06:27:16.117Z,1.75
2019-01-10T06:27:48.607Z,1.90
2019-01-10T06:28:21.455Z,2.02
2019-01-10T06:28:53.956Z,1.60
2019-01-10T06:29:26.421Z,1.70
2019-01-10T06:29:59.240Z,1.60
2019-01-10T06:30:31.713Z,1.95
2019-01-10T06:31:04.200Z,1.85
2019-01-10T06:31:36.707Z,1.75
2019-01-10T06:32:09.186Z,2.00
2019-01-10T06:32:41.671Z,1.75
2019-01-10T06:33:14.411Z,1.82
2019-01-10T06:33:46.886Z,2.00
2019-01-10T06:34:19.633Z,1.92
2019-01-10T06:34:52.115Z,1.70
2019-01-10T06:35:24.712Z,1.80
2019-01-10T06:35:57.157Z,1.70
2019-01-10T06:36:29.647Z,2.00
2019-01-10T06:37:02.446Z,2.20
2019-01-10T06:37:34.921Z,1.40
2019-01-10T06:38:07.657Z,2.08
2019-01-10T06:38:40.143Z,1.70
2019-01-10T06:39:12.615Z,2.00
2019-01-10T06:39:45.455Z,1.70
2019-01-10T06:40:19.667Z,1.67
2019-01-10T06:40:52.581Z,1.47
2019-01-10T06:41:25.049Z,2.00
2019-01-10T06:41:57.539Z,1.50
2019-01-10T06:42:30.317Z,1.55
2019-01-10T06:43:02.799Z,1.42
2019-01-10T06:43:35.291Z,1.60
2019-01-10T06:44:07.756Z,1.77
2019-01-10T06:44:44.628Z,2.00
2019-01-10T06:45:15.289Z,1.55
2019-01-10T06:45:47.760Z,2.10
2019-01-10T06:46:20.509Z,1.80
2019-01-10T06:46:52.978Z,1.70
2019-01-10T06:47:25.449Z,1.82
2019-01-10T06:47:58.306Z,1.70
2019-01-10T06:48:30.881Z,1.75
2019-01-10T06:49:03.812Z,1.50
2019-01-10T06:49:36.278Z,1.60
2019-01-10T06:50:09.924Z,1.70
2019-01-10T06:50:42.434Z,1.90
2019-01-10T06:51:14.901Z,1.82
2019-01-10T06:51:47.744Z,1.80
2019-01-10T06:52:20.218Z,1.60
2019-01-10T06:52:52.716Z,1.80
2019-01-10T06:53:25.230Z,1.77
2019-01-10T06:53:57.723Z,1.90
2019-01-10T06:54:30.224Z,1.95
2019-01-10T06:55:03.503Z,2.40
2019-01-10T06:55:42.580Z,1.85
2019-01-10T06:56:15.584Z,1.85
2019-01-10T06:56:48.053Z,1.90
2019-01-10T06:57:20.551Z,1.90
2019-01-10T06:57:53.059Z,2.00
2019-01-10T06:58:25.534Z,2.05
2019-01-10T06:58:58.047Z,2.20
2019-01-10T06:59:30.663Z,2.20
2019-01-10T07:00:05.058Z,2.05
2019-01-10T07:00:37.942Z,2.67
2019-01-10T07:01:10.404Z,2.52
2019-01-10T07:01:43.240Z,2.20
2019-01-10T07:02:15.712Z,2.22
2019-01-10T07:02:48.675Z,3.20
2019-01-10T07:03:21.159Z,2.60
2019-01-10T07:03:53.633Z,2.20
2019-01-10T07:04:26.155Z,2.40
2019-01-10T07:04:58.620Z,2.60
2019-01-10T07:05:31.071Z,2.08
2019-01-10T07:06:03.730Z,2.25
2019-01-10T07:06:37.760Z,2.33
2019-01-10T07:07:10.620Z,2.20
2019-01-10T07:07:43.074Z,2.30
2019-01-10T07:08:15.806Z,2.52
2019-01-10T07:08:48.262Z,3.00
2019-01-10T07:09:20.719Z,2.65
2019-01-10T07:09:53.357Z,2.52
2019-01-10T07:10:29.086Z,2.85
2019-01-10T07:11:01.882Z,2.98
2019-01-10T07:11:34.357Z,2.62
2019-01-10T07:12:07.832Z,3.25
2019-01-10T07:12:40.479Z,2.17
2019-01-10T07:13:12.935Z,2.98
2019-01-10T07:13:45.398Z,2.77